createdAt,value
2023-01-25T00:01:08.254Z,3.15
2023-01-25T00:03:36.431Z,3.30
2023-01-25T00:06:05.391Z,3.13
2023-01-25T00:08:33.482Z,3.70
2023-01-25T00:11:01.592Z,3.45
2023-01-25T00:13:31.419Z,3.95
2023-01-25T00:16:03.229Z,3.70
2023-01-25T00:18:31.599Z,4.80
2023-01-25T00:20:59.720Z,3.60
2023-01-25T00:23:28.148Z,3.25
2023-01-25T00:25:59.188Z,4.00
2023-01-25T00:28:27.314Z,4.18
2023-01-25T00:31:00.727Z,4.60
2023-01-25T00:33:41.257Z,3.42
2023-01-25T00:36:30.071Z,3.72
2023-01-25T00:38:59.648Z,2.78
2023-01-25T00:41:27.943Z,3.60
2023-01-25T00:43:56.544Z,3.53
2023-01-25T00:46:26.006Z,3.80
2023-01-25T00:48:55.559Z,3.70
2023-01-25T00:51:23.782Z,3.60
2023-01-25T00:53:52.207Z,4.13
2023-01-25T00:56:20.541Z,4.00
2023-01-25T00:58:48.694Z,3.45
2023-01-25T01:01:17.063Z,3.65
2023-01-25T01:03:46.541Z,3.42
2023-01-25T01:06:14.672Z,3.20
2023-01-25T01:08:44.235Z,3.92
2023-01-25T01:11:14.153Z,3.47
2023-01-25T01:13:42.985Z,3.72
2023-01-25T01:16:13.486Z,4.57
2023-01-25T01:18:43.344Z,2.72
2023-01-25T01:21:14.435Z,2.80
2023-01-25T01:23:42.656Z,3.63
2023-01-25T01:26:13.751Z,2.60
2023-01-25T01:28:43.006Z,3.22
2023-01-25T01:31:13.540Z,3.58
2023-01-25T01:33:42.024Z,3.60
2023-01-25T01:36:13.175Z,4.03
2023-01-25T01:38:41.824Z,3.90
2023-01-25T01:41:12.081Z,4.60
2023-01-25T01:43:40.763Z,3.47
2023-01-25T01:46:14.667Z,2.97
2023-01-25T01:48:47.475Z,2.08
2023-01-25T01:51:22.813Z,2.88
2023-01-25T01:53:54.384Z,3.65
2023-01-25T01:56:30.396Z,3.92
2023-01-25T01:59:00.319Z,3.47
2023-01-25T02:01:29.133Z,3.38
2023-01-25T02:03:57.446Z,3.25
2023-01-25T02:06:32.862Z,3.55
2023-01-25T02:09:03.175Z,3.38
2023-01-25T02:11:33.933Z,2.70
2023-01-25T02:14:03.055Z,3.38
2023-01-25T02:16:31.189Z,3.35
2023-01-25T02:19:02.380Z,3.63
2023-01-25T02:21:40.290Z,3.25
2023-01-25T02:24:13.692Z,2.38
2023-01-25T02:26:43.461Z,3.63
2023-01-25T02:29:12.543Z,3.20
2023-01-25T02:31:40.723Z,3.08
2023-01-25T02:34:09.714Z,4.55
2023-01-25T02:36:37.981Z,3.70
2023-01-25T02:39:11.052Z,3.65
2023-01-25T02:41:41.251Z,4.93
2023-01-25T02:44:13.822Z,3.80
2023-01-25T02:46:43.169Z,3.08
2023-01-25T02:49:12.322Z,3.60
2023-01-25T02:51:43.134Z,4.13
2023-01-25T02:54:13.975Z,2.72
2023-01-25T02:56:42.319Z,1.23
2023-01-25T02:59:13.506Z,3.15
2023-01-25T03:01:43.326Z,3.60
2023-01-25T03:04:12.418Z,2.80
2023-01-25T03:06:41.216Z,3.53
2023-01-25T03:09:11.683Z,3.90
2023-01-25T03:11:39.811Z,3.53
2023-01-25T03:14:08.222Z,2.72
2023-01-25T03:16:37.751Z,3.40
2023-01-25T03:19:06.167Z,3.45
2023-01-25T03:21:34.297Z,4.25
2023-01-25T03:24:03.858Z,3.47
2023-01-25T03:26:51.998Z,3.30
2023-01-25T03:29:20.198Z,4.22
2023-01-25T03:31:49.894Z,3.70
2023-01-25T03:34:18.170Z,3.70
2023-01-25T03:36:46.558Z,3.88
2023-01-25T03:39:14.802Z,4.65
2023-01-25T03:41:43.214Z,4.43
2023-01-25T03:44:12.892Z,3.35
2023-01-25T03:46:41.781Z,3.85
2023-01-25T03:49:11.456Z,3.95
2023-01-25T03:51:40.100Z,4.00
2023-01-25T03:54:10.150Z,4.28
2023-01-25T03:56:39.150Z,4.20
2023-01-25T03:59:07.955Z,4.18
2023-01-25T04:01:36.410Z,4.85
2023-01-25T04:04:04.571Z,5.05
2023-01-25T04:06:34.440Z,5.35
2023-01-25T04:09:02.618Z,4.80
2023-01-25T04:11:30.704Z,4.88
2023-01-25T04:13:59.191Z,4.28
2023-01-25T04:16:28.102Z,5.93
2023-01-25T04:18:56.740Z,5.07
2023-01-25T04:21:24.851Z,5.78
2023-01-25T04:23:54.350Z,5.35
2023-01-25T04:26:22.512Z,6.40
2023-01-25T04:28:50.588Z,7.03
2023-01-25T04:31:19.152Z,5.63
2023-01-25T04:33:49.083Z,6.03
2023-01-25T04:36:18.612Z,4.80
2023-01-25T04:38:47.054Z,6.07
2023-01-25T04:41:16.740Z,6.43
2023-01-25T04:43:44.826Z,7.60
2023-01-25T04:46:13.538Z,5.40
2023-01-25T04:48:41.927Z,5.75
2023-01-25T04:51:10.331Z,5.93
2023-01-25T04:53:38.638Z,6.72
2023-01-25T04:56:07.702Z,4.07
2023-01-25T04:58:37.565Z,5.47
2023-01-25T05:01:06.412Z,3.35
2023-01-25T05:03:34.937Z,5.97
2023-01-25T05:06:03.362Z,5.60
2023-01-25T05:08:31.511Z,6.38
2023-01-25T05:10:59.585Z,7.25
2023-01-25T05:13:27.783Z,6.97
2023-01-25T05:15:58.749Z,6.53
2023-01-25T05:18:31.096Z,8.85
2023-01-25T05:21:27.626Z,7.88
2023-01-25T05:23:55.741Z,7.90
2023-01-25T05:26:41.223Z,9.20
2023-01-25T05:29:10.838Z,8.15
2023-01-25T05:31:40.865Z,8.73
2023-01-25T05:34:10.200Z,7.32
2023-01-25T05:36:38.700Z,7.97
2023-01-25T05:39:08.691Z,8.10
2023-01-25T05:41:37.208Z,8.80
2023-01-25T05:44:05.501Z,7.05
2023-01-25T05:46:33.935Z,7.88
2023-01-25T05:49:03.426Z,7.75
2023-01-25T05:51:31.512Z,7.22
2023-01-25T05:53:59.652Z,6.70
2023-01-25T05:56:27.736Z,7.25
2023-01-25T05:58:56.556Z,9.88
2023-01-25T06:01:25.172Z,11.55
2023-01-25T06:03:54.105Z,8.43
2023-01-25T06:06:23.952Z,4.18
2023-01-25T06:08:52.572Z,8.98
2023-01-25T06:11:23.511Z,8.77
2023-01-25T06:13:52.942Z,10.18
2023-01-25T06:16:21.421Z,8.50
2023-01-25T06:18:49.529Z,6.80
2023-01-25T06:21:17.860Z,8.15
2023-01-25T06:23:47.330Z,5.55
2023-01-25T06:26:16.727Z,7.45
2023-01-25T06:28:45.210Z,8.07
2023-01-25T06:31:14.912Z,7.53
2023-01-25T06:33:44.348Z,9.95
2023-01-25T06:36:14.653Z,8.93
2023-01-25T06:38:43.319Z,7.25
2023-01-25T06:41:13.330Z,7.07
2023-01-25T06:43:41.679Z,7.20
2023-01-25T06:46:12.736Z,6.55
2023-01-25T06:48:43.134Z,8.48
2023-01-25T06:51:12.930Z,6.80
2023-01-25T06:53:42.823Z,6.63
2023-01-25T06:56:14.806Z,5.40
2023-01-25T06:58:43.392Z,6.72
2023-01-25T07:01:15.396Z,6.70
2023-01-25T07:03:44.047Z,6.82
2023-01-25T07:06:12.666Z,8.20
2023-01-25T07:08:40.920Z,6.13
2023-01-25T07:11:13.796Z,8.00
2023-01-25T07:13:45.592Z,7.72
2023-01-25T07:16:16.358Z,5.47
2023-01-25T07:18:44.508Z,5.65
2023-01-25T07:21:15.467Z,5.78
2023-01-25T07:23:44.431Z,6.05
2023-01-25T07:26:18.711Z,7.07
2023-01-25T07:28:49.229Z,6.63
2023-01-25T07:31:18.278Z,6.50
2023-01-25T07:33:49.991Z,5.22
2023-01-25T07:36:18.711Z,6.00
2023-01-25T07:38:47.367Z,6.80
2023-01-25T07:41:16.463Z,6.43
2023-01-25T07:43:44.709Z,5.63
2023-01-25T07:46:15.775Z,5.93
2023-01-25T07:48:48.453Z,7.22
2023-01-25T07:51:23.684Z,6.30
2023-01-25T07:53:54.283Z,6.40
2023-01-25T07:56:23.671Z,6.78
2023-01-25T07:58:53.976Z,5.47
2023-01-25T08:01:25.473Z,6.25
2023-01-25T08:03:54.213Z,7.10
2023-01-25T08:06:27.878Z,6.47
2023-01-25T08:08:56.384Z,5.72
2023-01-25T08:11:26.913Z,5.43
2023-01-25T08:13:55.817Z,5.32
2023-01-25T08:16:28.323Z,5.43
2023-01-25T08:18:57.735Z,5.32
2023-01-25T08:21:30.316Z,6.82
2023-01-25T08:24:00.041Z,5.70
2023-01-25T08:26:29.320Z,5.60
2023-01-25T08:28:57.908Z,5.97
2023-01-25T08:31:30.248Z,7.25
2023-01-25T08:33:59.541Z,6.07
2023-01-25T08:36:28.743Z,5.50
2023-01-25T08:38:58.371Z,5.28
2023-01-25T08:41:28.092Z,6.93
2023-01-25T08:43:57.951Z,5.88
2023-01-25T08:46:31.784Z,6.30
2023-01-25T08:49:01.396Z,6.20
2023-01-25T08:51:32.016Z,5.80
2023-01-25T08:54:04.035Z,4.93
2023-01-25T08:56:32.351Z,5.22
2023-01-25T08:59:00.767Z,5.90
2023-01-25T09:01:30.452Z,5.20
2023-01-25T09:03:58.541Z,5.03
2023-01-25T09:06:26.874Z,5.68
2023-01-25T09:08:55.008Z,4.50
2023-01-25T09:11:24.657Z,5.65
2023-01-25T09:13:52.738Z,5.07
2023-01-25T09:16:28.263Z,4.50
2023-01-25T09:18:59.395Z,5.88
2023-01-25T09:21:28.103Z,5.25
2023-01-25T09:24:11.983Z,5.72
2023-01-25T09:26:46.000Z,5.40
2023-01-25T09:29:18.101Z,4.72
2023-01-25T09:31:46.721Z,4.78
2023-01-25T09:34:17.548Z,5.47
2023-01-25T09:36:45.821Z,4.75
2023-01-25T09:39:14.878Z,5.75
2023-01-25T09:42:15.319Z,5.70
2023-01-25T09:45:08.932Z,4.93
2023-01-25T09:47:43.528Z,4.40
2023-01-25T09:50:28.291Z,5.55
2023-01-25T09:53:21.490Z,6.30
2023-01-25T09:55:55.992Z,5.30
2023-01-25T09:58:30.545Z,5.38
2023-01-25T10:01:36.564Z,5.40
2023-01-25T10:04:14.182Z,5.28
2023-01-25T10:06:55.271Z,4.47
2023-01-25T10:09:38.469Z,5.28
2023-01-25T10:12:16.380Z,4.78
2023-01-25T10:14:44.492Z,4.30
2023-01-25T10:17:17.088Z,4.07
2023-01-25T10:20:09.305Z,4.47
2023-01-25T10:22:46.132Z,4.45
2023-01-25T10:25:33.359Z,2.60
2023-01-25T10:28:30.198Z,3.53
2023-01-25T10:31:02.189Z,5.32
2023-01-25T10:33:34.291Z,4.90
2023-01-25T10:36:05.679Z,6.65
2023-01-25T10:38:40.331Z,4.13
2023-01-25T10:41:13.537Z,4.00
2023-01-25T10:43:42.038Z,3.95
2023-01-25T10:46:20.751Z,4.00
2023-01-25T10:48:48.977Z,4.40
2023-01-25T10:51:35.397Z,4.22
2023-01-25T10:54:07.138Z,4.63
2023-01-25T10:56:37.042Z,4.25
2023-01-25T10:59:17.274Z,4.50
2023-01-25T11:01:45.801Z,6.00
2023-01-25T11:04:35.478Z,4.53
2023-01-25T11:07:06.136Z,5.57
2023-01-25T11:09:38.630Z,5.03
2023-01-25T11:12:18.821Z,5.43
2023-01-25T11:14:50.694Z,4.05
2023-01-25T11:17:30.641Z,4.15
2023-01-25T11:20:19.528Z,4.40
2023-01-25T11:22:52.749Z,4.13
2023-01-25T11:25:31.469Z,3.08
2023-01-25T11:28:13.090Z,5.10
2023-01-25T11:30:41.354Z,5.10
2023-01-25T11:33:13.189Z,4.60
2023-01-25T11:36:04.862Z,5.30
2023-01-25T11:38:33.636Z,6.70
2023-01-25T11:41:12.150Z,6.13
2023-01-25T11:43:56.253Z,5.88
2023-01-25T11:46:40.522Z,5.32
2023-01-25T11:49:37.662Z,6.53
2023-01-25T11:52:14.739Z,4.95
2023-01-25T11:54:57.311Z,6.10
2023-01-25T11:57:51.996Z,5.43
2023-01-25T12:00:37.071Z,5.50
2023-01-25T12:03:48.075Z,6.72
2023-01-25T12:06:21.088Z,7.70
2023-01-25T12:09:09.808Z,7.28
2023-01-25T12:12:03.082Z,5.97
2023-01-25T12:14:45.436Z,6.10
2023-01-25T12:17:26.385Z,7.03
2023-01-25T12:20:18.913Z,7.68
2023-01-25T12:22:56.480Z,8.35
2023-01-25T12:25:33.977Z,7.40
2023-01-25T12:28:13.617Z,7.90
2023-01-25T12:30:52.791Z,7.90
2023-01-25T12:33:25.147Z,7.47
2023-01-25T12:36:00.860Z,9.57
2023-01-25T12:38:36.277Z,7.97
2023-01-25T12:41:12.724Z,10.00
2023-01-25T12:43:46.691Z,11.93
2023-01-25T12:46:25.130Z,10.63
2023-01-25T12:48:55.938Z,9.90
2023-01-25T12:51:27.764Z,9.80
2023-01-25T12:53:58.250Z,15.13
2023-01-25T12:56:33.923Z,11.55
2023-01-25T12:59:12.724Z,13.30
2023-01-25T13:01:48.675Z,13.30
2023-01-25T13:04:27.147Z,13.10
2023-01-25T13:07:00.823Z,11.75
2023-01-25T13:09:34.732Z,5.82
2023-01-25T13:12:05.428Z,9.25
2023-01-25T13:14:38.125Z,13.38
2023-01-25T13:17:34.267Z,12.80
2023-01-25T13:20:25.069Z,12.15
2023-01-25T13:22:59.762Z,10.02
2023-01-25T13:25:28.564Z,10.70
2023-01-25T13:28:40.733Z,11.10
2023-01-25T13:31:08.949Z,9.77
2023-01-25T13:33:38.571Z,11.20
2023-01-25T13:36:39.010Z,11.73
2023-01-25T13:39:36.784Z,10.95
2023-01-25T13:42:18.827Z,11.05
2023-01-25T13:44:51.643Z,10.73
2023-01-25T13:47:24.171Z,9.88
2023-01-25T13:50:00.790Z,9.48
2023-01-25T13:52:31.175Z,10.23
2023-01-25T13:55:00.340Z,9.02
2023-01-25T13:57:30.291Z,8.68
2023-01-25T14:00:11.683Z,6.75
2023-01-25T14:02:41.586Z,7.85
2023-01-25T14:05:20.992Z,7.63
2023-01-25T14:07:52.506Z,7.80
2023-01-25T14:10:24.195Z,5.18
2023-01-25T14:12:53.964Z,6.97
2023-01-25T14:15:24.956Z,5.90
2023-01-25T14:18:16.366Z,16.45
2023-01-25T14:20:47.503Z,10.48
2023-01-25T14:23:34.281Z,9.02
2023-01-25T14:26:02.803Z,4.82
2023-01-25T14:28:31.689Z,7.07
2023-01-25T14:31:01.851Z,6.55
2023-01-25T14:33:32.075Z,7.57
2023-01-25T14:36:23.798Z,8.25
2023-01-25T14:38:53.225Z,6.00
2023-01-25T14:41:25.552Z,6.75
2023-01-25T14:43:56.405Z,9.07
2023-01-25T14:46:27.669Z,8.27
2023-01-25T14:49:20.181Z,7.13
2023-01-25T14:51:52.072Z,7.18
2023-01-25T14:54:22.794Z,7.38
2023-01-25T14:56:53.497Z,7.25
2023-01-25T14:59:35.119Z,6.35
2023-01-25T15:02:13.204Z,8.75
2023-01-25T15:04:41.558Z,7.97
2023-01-25T15:07:35.899Z,4.05
2023-01-25T15:10:15.540Z,2.60
2023-01-25T15:12:58.457Z,3.40
2023-01-25T15:15:34.305Z,3.42
2023-01-25T15:18:03.274Z,4.97
2023-01-25T15:20:35.244Z,5.97
2023-01-25T15:23:22.846Z,4.20
2023-01-25T15:25:53.387Z,5.20
2023-01-25T15:28:21.775Z,5.35
2023-01-25T15:30:50.150Z,5.10
2023-01-25T15:33:22.323Z,6.20
2023-01-25T15:35:51.554Z,5.05
2023-01-25T15:38:21.911Z,5.43
2023-01-25T15:40:50.532Z,6.40
2023-01-25T15:43:20.165Z,5.20
2023-01-25T15:45:51.486Z,6.18
2023-01-25T15:48:24.243Z,5.32
2023-01-25T15:50:54.297Z,5.63
2023-01-25T15:53:23.791Z,6.60
2023-01-25T15:55:55.467Z,5.03
2023-01-25T15:58:27.131Z,5.60
2023-01-25T16:00:55.682Z,5.30
2023-01-25T16:03:24.157Z,5.35
2023-01-25T16:05:57.424Z,4.97
2023-01-25T16:08:26.883Z,5.10
2023-01-25T16:10:55.570Z,5.50
2023-01-25T16:13:24.817Z,5.07
2023-01-25T16:15:54.572Z,5.38
2023-01-25T16:18:23.084Z,4.95
2023-01-25T16:20:51.692Z,5.95
2023-01-25T16:23:19.821Z,4.70
2023-01-25T16:25:50.089Z,5.00
2023-01-25T16:28:18.844Z,5.28
2023-01-25T16:30:47.123Z,4.40
2023-01-25T16:33:15.319Z,4.88
2023-01-25T16:35:43.622Z,5.35
2023-01-25T16:38:12.989Z,5.53
2023-01-25T16:40:41.406Z,4.30
2023-01-25T16:43:11.014Z,4.15
2023-01-25T16:45:40.039Z,5.25
2023-01-25T16:48:09.454Z,4.45
2023-01-25T16:50:37.579Z,4.82
2023-01-25T16:53:05.644Z,5.95
2023-01-25T16:55:33.706Z,5.22
2023-01-25T16:58:02.139Z,5.68
2023-01-25T17:00:31.910Z,6.20
2023-01-25T17:03:00.139Z,5.03
2023-01-25T17:05:33.269Z,3.83
2023-01-25T17:08:01.376Z,4.60
2023-01-25T17:10:33.409Z,4.78
2023-01-25T17:13:01.680Z,4.90
2023-01-25T17:15:32.564Z,5.28
2023-01-25T17:18:00.776Z,4.97
2023-01-25T17:20:29.697Z,6.10
2023-01-25T17:22:57.775Z,5.50
2023-01-25T17:25:26.329Z,4.75
2023-01-25T17:27:54.411Z,6.18
2023-01-25T17:30:22.657Z,5.05
2023-01-25T17:32:52.532Z,5.15
2023-01-25T17:35:20.611Z,6.18
2023-01-25T17:37:48.698Z,5.53
2023-01-25T17:40:17.183Z,5.35
2023-01-25T17:42:45.253Z,4.78
2023-01-25T17:45:13.646Z,5.90
2023-01-25T17:47:41.718Z,4.70
2023-01-25T17:50:12.555Z,4.57
2023-01-25T17:52:40.796Z,5.47
2023-01-25T17:55:09.844Z,4.43
2023-01-25T17:57:37.997Z,4.75
2023-01-25T18:00:07.301Z,6.03
2023-01-25T18:02:35.777Z,3.90
2023-01-25T18:05:03.985Z,4.75
2023-01-25T18:07:33.431Z,4.97
2023-01-25T18:10:01.513Z,4.45
2023-01-25T18:12:30.165Z,5.72
2023-01-25T18:14:58.231Z,5.05
2023-01-25T18:17:26.605Z,5.32
2023-01-25T18:19:54.726Z,5.25
2023-01-25T18:22:23.460Z,6.03
2023-01-25T18:24:52.971Z,5.63
2023-01-25T18:27:23.201Z,4.75
2023-01-25T18:30:00.306Z,5.00
2023-01-25T18:32:28.965Z,5.75
2023-01-25T18:34:57.378Z,5.25
2023-01-25T18:37:29.749Z,5.05
2023-01-25T18:39:59.291Z,5.18
2023-01-25T18:42:28.555Z,6.18
2023-01-25T18:44:56.987Z,5.47
2023-01-25T18:47:25.697Z,4.28
2023-01-25T18:49:54.578Z,5.10
2023-01-25T18:52:24.888Z,4.85
2023-01-25T18:54:53.516Z,5.57
2023-01-25T18:57:23.091Z,6.00
2023-01-25T18:59:51.448Z,5.90
2023-01-25T19:02:20.092Z,5.53
2023-01-25T19:04:48.246Z,4.93
2023-01-25T19:07:16.345Z,5.05
2023-01-25T19:09:44.672Z,5.78
2023-01-25T19:12:13.196Z,6.10
2023-01-25T19:14:42.724Z,4.82
2023-01-25T19:17:10.910Z,6.10
2023-01-25T19:19:39.083Z,5.65
2023-01-25T19:22:07.178Z,4.60
2023-01-25T19:24:35.472Z,3.65
2023-01-25T19:27:03.618Z,4.97
2023-01-25T19:29:32.175Z,5.70
2023-01-25T19:32:01.644Z,5.75
2023-01-25T19:34:29.829Z,2.00
2023-01-25T19:36:58.648Z,4.18
2023-01-25T19:39:26.823Z,5.70
2023-01-25T19:41:55.523Z,5.15
2023-01-25T19:44:24.880Z,5.07
2023-01-25T19:46:53.127Z,5.43
2023-01-25T19:49:23.657Z,5.18
2023-01-25T19:51:54.087Z,5.43
2023-01-25T19:54:24.175Z,4.97
2023-01-25T19:56:54.088Z,4.43
2023-01-25T19:59:25.697Z,4.72
2023-01-25T20:01:54.279Z,4.78
2023-01-25T20:04:25.009Z,4.90
2023-01-25T20:06:53.876Z,5.95
2023-01-25T20:09:25.187Z,4.97
2023-01-25T20:11:55.432Z,6.53
2023-01-25T20:14:23.570Z,6.05
2023-01-25T20:16:52.683Z,5.43
2023-01-25T20:19:21.317Z,5.82
2023-01-25T20:21:50.772Z,4.95
2023-01-25T20:24:19.365Z,5.28
2023-01-25T20:26:47.480Z,5.00
2023-01-25T20:29:15.576Z,4.03
2023-01-25T20:31:45.583Z,4.00
2023-01-25T20:34:16.623Z,4.90
2023-01-25T20:36:45.636Z,4.22
2023-01-25T20:39:16.710Z,5.35
2023-01-25T20:41:44.883Z,4.78
2023-01-25T20:44:14.725Z,4.47
2023-01-25T20:46:43.737Z,4.63
2023-01-25T20:49:15.608Z,4.50
2023-01-25T20:51:43.890Z,4.60
2023-01-25T20:54:12.657Z,5.53
2023-01-25T20:56:42.970Z,5.43
2023-01-25T20:59:12.361Z,5.55
2023-01-25T21:01:40.692Z,3.90
2023-01-25T21:04:11.269Z,5.35
2023-01-25T21:06:39.833Z,5.00
2023-01-25T21:09:08.408Z,4.82
2023-01-25T21:11:36.788Z,5.22
2023-01-25T21:14:06.381Z,4.53
2023-01-25T21:16:34.524Z,3.92
2023-01-25T21:19:06.680Z,3.65
2023-01-25T21:21:35.576Z,5.13
2023-01-25T21:24:05.566Z,4.28
2023-01-25T21:26:35.675Z,4.32
2023-01-25T21:29:04.550Z,3.45
2023-01-25T21:31:36.329Z,4.28
2023-01-25T21:34:06.516Z,3.60
2023-01-25T21:36:34.746Z,4.32
2023-01-25T21:39:03.402Z,4.13
2023-01-25T21:41:33.905Z,4.35
2023-01-25T21:44:20.700Z,4.03
2023-01-25T21:49:56.151Z,4.15
2023-01-25T21:52:24.496Z,3.97
2023-01-25T21:54:52.645Z,3.08
2023-01-25T21:57:20.785Z,3.33
2023-01-25T21:59:49.370Z,3.65
2023-01-25T22:02:18.881Z,4.10
2023-01-25T22:04:47.171Z,3.50
2023-01-25T22:07:15.251Z,3.70
2023-01-25T22:09:43.692Z,4.50
2023-01-25T22:12:13.143Z,4.90
2023-01-25T22:14:41.231Z,3.63
2023-01-25T22:17:09.302Z,3.88
2023-01-25T22:19:39.170Z,3.72
2023-01-25T22:22:07.283Z,3.78
2023-01-25T22:24:35.519Z,4.80
2023-01-25T22:27:27.485Z,4.47
2023-01-25T22:29:55.711Z,4.32
2023-01-25T22:32:23.809Z,4.40
2023-01-25T22:34:53.336Z,4.22
2023-01-25T22:37:21.892Z,3.97
2023-01-25T22:39:50.352Z,4.40
2023-01-25T22:42:18.646Z,4.60
2023-01-25T22:44:46.772Z,4.45
2023-01-25T22:47:15.252Z,4.18
2023-01-25T22:49:43.303Z,4.63
2023-01-25T22:52:12.774Z,4.88
2023-01-25T22:54:40.892Z,4.75
2023-01-25T22:57:08.986Z,5.70
2023-01-25T22:59:37.357Z,5.63
2023-01-25T23:02:05.497Z,5.53
2023-01-25T23:04:33.618Z,5.32
2023-01-25T23:07:12.123Z,5.68
2023-01-25T23:09:42.270Z,4.20
2023-01-25T23:12:10.354Z,5.25
2023-01-25T23:14:54.343Z,5.03
2023-01-25T23:17:42.195Z,4.53
2023-01-25T23:20:12.986Z,5.10
2023-01-25T23:22:41.656Z,3.83
2023-01-25T23:25:12.960Z,5.07
2023-01-25T23:27:41.136Z,4.40
2023-01-25T23:30:11.391Z,4.45
2023-01-25T23:32:39.703Z,3.78
2023-01-25T23:35:08.616Z,4.70
2023-01-25T23:37:36.740Z,4.70
2023-01-25T23:40:05.312Z,5.97
2023-01-25T23:42:35.009Z,5.10
2023-01-25T23:45:03.184Z,5.22
2023-01-25T23:47:31.314Z,5.75
2023-01-25T23:49:59.459Z,5.35
2023-01-25T23:52:27.588Z,5.63
2023-01-25T23:54:56.818Z,4.97
2023-01-25T23:57:25.493Z,4.82
2023-01-25T23:59:54.970Z,7.20
